SUR4070 SPZO-SPJC
Flight info
| Callsign | SUR4070 |
|---|---|
| Flight time | 1h 12m |
| Altitude | 25998 |
| Route | GAXU1B GAXUN UT321 UDENI UT332 PEROV PEROV6 |
| Aircraft | E175/L-S/1200 |
Departure
| Time | 2026-04-27 11:34 |
|---|---|
| Airport | Alejandro Velasco Astete International Airport (SPZO) |
Arrival
| Time | 2026-04-27 12:47 |
|---|---|
| Airport | Jorge Chávez International Airport (SPJC) |
| Time | Latitude | Longitude | Altitude | Speed | Heading |
|---|---|---|---|---|---|
| 2026-04-27 11:25 | -13.53730 | -71.94494 | 10842 ft | 0 kts | 260° |
| 2026-04-27 11:26 | -13.53729 | -71.94495 | 10842 ft | 0 kts | 301° |
| 2026-04-27 11:26 | -13.53707 | -71.94494 | 10841 ft | 5 kts | 7° |
| 2026-04-27 11:26 | -13.53662 | -71.94497 | 10840 ft | 6 kts | 324° |
| 2026-04-27 11:27 | -13.53644 | -71.94529 | 10841 ft | 3 kts | 281° |
| 2026-04-27 11:27 | -13.53641 | -71.94551 | 10843 ft | 3 kts | 276° |
| 2026-04-27 11:27 | -13.53638 | -71.94577 | 10844 ft | 4 kts | 275° |
| 2026-04-27 11:27 | -13.53635 | -71.94624 | 10847 ft | 8 kts | 274° |
| 2026-04-27 11:28 | -13.53629 | -71.94693 | 10851 ft | 11 kts | 274° |
| 2026-04-27 11:28 | -13.53622 | -71.94785 | 10856 ft | 12 kts | 275° |
| 2026-04-27 11:28 | -13.53615 | -71.94859 | 10860 ft | 8 kts | 276° |
| 2026-04-27 11:28 | -13.53609 | -71.94910 | 10862 ft | 6 kts | 277° |
| 2026-04-27 11:29 | -13.53603 | -71.94962 | 10865 ft | 9 kts | 276° |
| 2026-04-27 11:29 | -13.53595 | -71.95026 | 10869 ft | 6 kts | 277° |
| 2026-04-27 11:29 | -13.53592 | -71.95048 | 10871 ft | 0 kts | 277° |
| 2026-04-27 11:29 | -13.53592 | -71.95049 | 10871 ft | 0 kts | 277° |
| 2026-04-27 11:30 | -13.53589 | -71.95078 | 10874 ft | 7 kts | 276° |
| 2026-04-27 11:30 | -13.53585 | -71.95114 | 10877 ft | 3 kts | 274° |
| 2026-04-27 11:30 | -13.53581 | -71.95157 | 10880 ft | 7 kts | 275° |
| 2026-04-27 11:30 | -13.53578 | -71.95190 | 10883 ft | 2 kts | 275° |
| 2026-04-27 11:31 | -13.53576 | -71.95215 | 10885 ft | 5 kts | 275° |
| 2026-04-27 11:31 | -13.53572 | -71.95250 | 10887 ft | 3 kts | 276° |
| 2026-04-27 11:31 | -13.53569 | -71.95277 | 10888 ft | 7 kts | 277° |
| 2026-04-27 11:31 | -13.53561 | -71.95344 | 10892 ft | 8 kts | 276° |
| 2026-04-27 11:32 | -13.53554 | -71.95395 | 10894 ft | 6 kts | 283° |
| 2026-04-27 11:32 | -13.53506 | -71.95445 | 10895 ft | 10 kts | 352° |
| 2026-04-27 11:32 | -13.53499 | -71.95445 | 10895 ft | 0 kts | 355° |
| 2026-04-27 11:32 | -13.53496 | -71.95445 | 10895 ft | 3 kts | 355° |
| 2026-04-27 11:33 | -13.53430 | -71.95419 | 10890 ft | 11 kts | 54° |
| 2026-04-27 11:33 | -13.53422 | -71.95398 | 10888 ft | 0 kts | 81° |
| 2026-04-27 11:33 | -13.53437 | -71.95142 | 10874 ft | 71 kts | 96° |
| 2026-04-27 11:33 | -13.53514 | -71.94405 | 10836 ft | 133 kts | 95° |
| 2026-04-27 11:34 | -13.53630 | -71.93290 | 10837 ft | 175 kts | 98° |
| 2026-04-27 11:34 | -13.53835 | -71.92035 | 11150 ft | 194 kts | 96° |
| 2026-04-27 11:34 | -13.53971 | -71.90560 | 11435 ft | 208 kts | 95° |
| 2026-04-27 11:34 | -13.54293 | -71.89066 | 11859 ft | 224 kts | 104° |
| 2026-04-27 11:35 | -13.54790 | -71.87485 | 12279 ft | 244 kts | 114° |
| 2026-04-27 11:35 | -13.55513 | -71.85805 | 12716 ft | 264 kts | 110° |
| 2026-04-27 11:35 | -13.56151 | -71.83968 | 13180 ft | 282 kts | 109° |
| 2026-04-27 11:35 | -13.57139 | -71.82175 | 13649 ft | 300 kts | 126° |
| 2026-04-27 11:36 | -13.58050 | -71.80228 | 14089 ft | 308 kts | 98° |
| 2026-04-27 11:36 | -13.57897 | -71.78037 | 14555 ft | 309 kts | 68° |
| 2026-04-27 11:36 | -13.56718 | -71.76237 | 14998 ft | 307 kts | 39° |
| 2026-04-27 11:36 | -13.54844 | -71.75279 | 15425 ft | 306 kts | 9° |
| 2026-04-27 11:37 | -13.52723 | -71.75412 | 15871 ft | 305 kts | 340° |
| 2026-04-27 11:37 | -13.50907 | -71.76522 | 16309 ft | 307 kts | 319° |
| 2026-04-27 11:37 | -13.49392 | -71.78092 | 16711 ft | 309 kts | 313° |
| 2026-04-27 11:37 | -13.47983 | -71.79769 | 17075 ft | 310 kts | 311° |
| 2026-04-27 11:38 | -13.46638 | -71.81466 | 17453 ft | 310 kts | 310° |
| 2026-04-27 11:38 | -13.45390 | -71.83276 | 17819 ft | 314 kts | 296° |
| 2026-04-27 11:38 | -13.44570 | -71.85381 | 18229 ft | 316 kts | 292° |
| 2026-04-27 11:38 | -13.43786 | -71.87478 | 18611 ft | 316 kts | 292° |
| 2026-04-27 11:39 | -13.42997 | -71.89605 | 18992 ft | 320 kts | 292° |
| 2026-04-27 11:39 | -13.42219 | -71.91711 | 19362 ft | 320 kts | 291° |
| 2026-04-27 11:39 | -13.41419 | -71.93877 | 19746 ft | 321 kts | 291° |
| 2026-04-27 11:39 | -13.40635 | -71.96002 | 20119 ft | 323 kts | 291° |
| 2026-04-27 11:40 | -13.39839 | -71.98160 | 20499 ft | 325 kts | 291° |
| 2026-04-27 11:40 | -13.39029 | -72.00351 | 20880 ft | 327 kts | 291° |
| 2026-04-27 11:40 | -13.38226 | -72.02525 | 21234 ft | 329 kts | 291° |
| 2026-04-27 11:40 | -13.37401 | -72.04759 | 21592 ft | 332 kts | 290° |
| 2026-04-27 11:41 | -13.36584 | -72.06972 | 21957 ft | 340 kts | 290° |
| 2026-04-27 11:41 | -13.35728 | -72.09285 | 22319 ft | 347 kts | 290° |
| 2026-04-27 11:41 | -13.34875 | -72.11594 | 22711 ft | 353 kts | 290° |
| 2026-04-27 11:41 | -13.33991 | -72.13984 | 23121 ft | 359 kts | 290° |
| 2026-04-27 11:42 | -13.33099 | -72.16395 | 23533 ft | 364 kts | 290° |
| 2026-04-27 11:42 | -13.32201 | -72.18823 | 23964 ft | 369 kts | 290° |
| 2026-04-27 11:42 | -13.31279 | -72.21312 | 24411 ft | 374 kts | 290° |
| 2026-04-27 11:42 | -13.30361 | -72.23792 | 24852 ft | 378 kts | 290° |
| 2026-04-27 11:43 | -13.29420 | -72.26331 | 25297 ft | 382 kts | 290° |
| 2026-04-27 11:43 | -13.28468 | -72.28899 | 25744 ft | 386 kts | 290° |
| 2026-04-27 11:43 | -13.27521 | -72.31453 | 26183 ft | 389 kts | 290° |
| 2026-04-27 11:43 | -13.26549 | -72.34072 | 26630 ft | 392 kts | 290° |
| 2026-04-27 11:44 | -13.25583 | -72.36676 | 26813 ft | 401 kts | 290° |
| 2026-04-27 11:44 | -13.24565 | -72.39419 | 26840 ft | 414 kts | 290° |
| 2026-04-27 11:44 | -13.23544 | -72.42177 | 26837 ft | 426 kts | 290° |
| 2026-04-27 11:44 | -13.22476 | -72.45063 | 26820 ft | 430 kts | 290° |
| 2026-04-27 11:45 | -13.21421 | -72.47909 | 26813 ft | 430 kts | 290° |
| 2026-04-27 11:45 | -13.20351 | -72.50788 | 26806 ft | 430 kts | 290° |
| 2026-04-27 11:45 | -13.19299 | -72.53616 | 26810 ft | 431 kts | 290° |
| 2026-04-27 11:45 | -13.18222 | -72.56510 | 26809 ft | 430 kts | 290° |
| 2026-04-27 11:46 | -13.17153 | -72.59383 | 26806 ft | 431 kts | 290° |
| 2026-04-27 11:46 | -13.16091 | -72.62236 | 26800 ft | 430 kts | 290° |
| 2026-04-27 11:46 | -13.15026 | -72.65093 | 26794 ft | 431 kts | 290° |
| 2026-04-27 11:46 | -13.13957 | -72.67962 | 26790 ft | 430 kts | 290° |
| 2026-04-27 11:47 | -13.12899 | -72.70799 | 26791 ft | 431 kts | 290° |
| 2026-04-27 11:47 | -13.11858 | -72.73592 | 26783 ft | 431 kts | 290° |
| 2026-04-27 11:47 | -13.10780 | -72.76481 | 26777 ft | 431 kts | 290° |
| 2026-04-27 11:47 | -13.09844 | -72.79367 | 26749 ft | 430 kts | 282° |
| 2026-04-27 11:48 | -13.09187 | -72.82375 | 26783 ft | 430 kts | 284° |
| 2026-04-27 11:48 | -13.08491 | -72.85336 | 26774 ft | 430 kts | 283° |
| 2026-04-27 11:48 | -13.07808 | -72.88335 | 26763 ft | 430 kts | 283° |
| 2026-04-27 11:48 | -13.07139 | -72.91296 | 26768 ft | 431 kts | 283° |
| 2026-04-27 11:49 | -13.06465 | -72.94282 | 26771 ft | 431 kts | 283° |
| 2026-04-27 11:49 | -13.05788 | -72.97286 | 26767 ft | 430 kts | 283° |
| 2026-04-27 11:49 | -13.05120 | -73.00244 | 26765 ft | 430 kts | 283° |
| 2026-04-27 11:49 | -13.04440 | -73.03260 | 26763 ft | 431 kts | 283° |
| 2026-04-27 11:50 | -13.03767 | -73.06240 | 26758 ft | 430 kts | 283° |
| 2026-04-27 11:50 | -13.03097 | -73.09204 | 26758 ft | 430 kts | 283° |
| 2026-04-27 11:50 | -13.02425 | -73.12178 | 26771 ft | 430 kts | 283° |
| 2026-04-27 11:50 | -13.01743 | -73.15190 | 26778 ft | 430 kts | 283° |
| 2026-04-27 11:51 | -13.01072 | -73.18156 | 26782 ft | 431 kts | 283° |
| 2026-04-27 11:51 | -13.00397 | -73.21137 | 26782 ft | 430 kts | 283° |
| 2026-04-27 11:51 | -12.99048 | -73.27089 | 26793 ft | 428 kts | 283° |
| 2026-04-27 11:52 | -12.98367 | -73.30093 | 26786 ft | 429 kts | 283° |
| 2026-04-27 11:52 | -12.97690 | -73.33073 | 26763 ft | 431 kts | 283° |
| 2026-04-27 11:52 | -12.97016 | -73.36041 | 26749 ft | 430 kts | 283° |
| 2026-04-27 11:52 | -12.96344 | -73.38998 | 26764 ft | 429 kts | 283° |
| 2026-04-27 11:53 | -12.95658 | -73.42014 | 26752 ft | 430 kts | 283° |
| 2026-04-27 11:53 | -12.94987 | -73.44968 | 26740 ft | 428 kts | 283° |
| 2026-04-27 11:53 | -12.94308 | -73.47947 | 26711 ft | 430 kts | 283° |
| 2026-04-27 11:53 | -12.93627 | -73.50938 | 26676 ft | 430 kts | 283° |
| 2026-04-27 11:54 | -12.92944 | -73.53938 | 26673 ft | 429 kts | 283° |
| 2026-04-27 11:54 | -12.92268 | -73.56902 | 26714 ft | 429 kts | 283° |
| 2026-04-27 11:54 | -12.91595 | -73.59851 | 26721 ft | 429 kts | 283° |
| 2026-04-27 11:54 | -12.90921 | -73.62805 | 26709 ft | 428 kts | 283° |
| 2026-04-27 11:55 | -12.90240 | -73.65788 | 26712 ft | 430 kts | 283° |
| 2026-04-27 11:55 | -12.89555 | -73.68785 | 26716 ft | 430 kts | 283° |
| 2026-04-27 11:55 | -12.88875 | -73.71760 | 26708 ft | 429 kts | 283° |
| 2026-04-27 11:55 | -12.88202 | -73.74702 | 26730 ft | 429 kts | 283° |
| 2026-04-27 11:56 | -12.87521 | -73.77679 | 26750 ft | 428 kts | 283° |
| 2026-04-27 11:56 | -12.86845 | -73.80631 | 26729 ft | 430 kts | 283° |
| 2026-04-27 11:56 | -12.86162 | -73.83614 | 26711 ft | 430 kts | 283° |
| 2026-04-27 11:56 | -12.85482 | -73.86579 | 26725 ft | 429 kts | 283° |
| 2026-04-27 11:57 | -12.84794 | -73.89578 | 26721 ft | 429 kts | 283° |
| 2026-04-27 11:57 | -12.84120 | -73.92515 | 26721 ft | 428 kts | 283° |
| 2026-04-27 11:57 | -12.83434 | -73.95503 | 26724 ft | 430 kts | 283° |
| 2026-04-27 11:57 | -12.82748 | -73.98491 | 26724 ft | 428 kts | 283° |
| 2026-04-27 11:58 | -12.82069 | -74.01443 | 26750 ft | 430 kts | 283° |
| 2026-04-27 11:58 | -12.81376 | -74.04459 | 26742 ft | 428 kts | 283° |
| 2026-04-27 11:58 | -12.80697 | -74.07408 | 26746 ft | 429 kts | 283° |
| 2026-04-27 11:58 | -12.80011 | -74.10391 | 26748 ft | 428 kts | 283° |
| 2026-04-27 11:59 | -12.79331 | -74.13337 | 26745 ft | 430 kts | 283° |
| 2026-04-27 11:59 | -12.78650 | -74.16294 | 26788 ft | 428 kts | 283° |
| 2026-04-27 11:59 | -12.77965 | -74.19266 | 26807 ft | 430 kts | 283° |
| 2026-04-27 11:59 | -12.77280 | -74.22234 | 26831 ft | 428 kts | 283° |
| 2026-04-27 12:00 | -12.76594 | -74.25208 | 26859 ft | 429 kts | 283° |
| 2026-04-27 12:00 | -12.75897 | -74.28222 | 26863 ft | 429 kts | 283° |
| 2026-04-27 12:00 | -12.75219 | -74.31160 | 26856 ft | 429 kts | 283° |
| 2026-04-27 12:00 | -12.74529 | -74.34142 | 26869 ft | 428 kts | 283° |
| 2026-04-27 12:01 | -12.73837 | -74.37131 | 26878 ft | 431 kts | 283° |
| 2026-04-27 12:01 | -12.73158 | -74.40068 | 26885 ft | 428 kts | 283° |
| 2026-04-27 12:01 | -12.72469 | -74.43038 | 26875 ft | 431 kts | 283° |
| 2026-04-27 12:01 | -12.71780 | -74.46013 | 26878 ft | 431 kts | 283° |
| 2026-04-27 12:02 | -12.71083 | -74.49020 | 26878 ft | 430 kts | 283° |
| 2026-04-27 12:02 | -12.70397 | -74.51977 | 26901 ft | 430 kts | 283° |
| 2026-04-27 12:02 | -12.69699 | -74.54987 | 26889 ft | 431 kts | 284° |
| 2026-04-27 12:02 | -12.69015 | -74.57929 | 26895 ft | 430 kts | 284° |
| 2026-04-27 12:03 | -12.68324 | -74.60902 | 26915 ft | 430 kts | 284° |
| 2026-04-27 12:03 | -12.67632 | -74.63882 | 26933 ft | 431 kts | 284° |
| 2026-04-27 12:03 | -12.66938 | -74.66864 | 26961 ft | 432 kts | 284° |
| 2026-04-27 12:03 | -12.66244 | -74.69848 | 26974 ft | 429 kts | 284° |
| 2026-04-27 12:04 | -12.65544 | -74.72852 | 26968 ft | 430 kts | 284° |
| 2026-04-27 12:04 | -12.64859 | -74.75795 | 27001 ft | 431 kts | 284° |
| 2026-04-27 12:04 | -12.64162 | -74.78786 | 27013 ft | 430 kts | 284° |
| 2026-04-27 12:04 | -12.63465 | -74.81775 | 27010 ft | 430 kts | 284° |
| 2026-04-27 12:05 | -12.62767 | -74.84766 | 27003 ft | 432 kts | 284° |
| 2026-04-27 12:05 | -12.62070 | -74.87749 | 27027 ft | 431 kts | 284° |
| 2026-04-27 12:05 | -12.61381 | -74.90702 | 27041 ft | 432 kts | 284° |
| 2026-04-27 12:05 | -12.60681 | -74.93694 | 27025 ft | 431 kts | 284° |
| 2026-04-27 12:06 | -12.59981 | -74.96688 | 27032 ft | 430 kts | 284° |
| 2026-04-27 12:06 | -12.59285 | -74.99667 | 27036 ft | 431 kts | 284° |
| 2026-04-27 12:06 | -12.58585 | -75.02655 | 27033 ft | 431 kts | 284° |
| 2026-04-27 12:06 | -12.57883 | -75.05652 | 27028 ft | 431 kts | 284° |
| 2026-04-27 12:07 | -12.57193 | -75.08599 | 27022 ft | 430 kts | 284° |
| 2026-04-27 12:07 | -12.56489 | -75.11600 | 27017 ft | 430 kts | 284° |
| 2026-04-27 12:07 | -12.55797 | -75.14552 | 27006 ft | 432 kts | 284° |
| 2026-04-27 12:07 | -12.55089 | -75.17566 | 26984 ft | 432 kts | 284° |
| 2026-04-27 12:08 | -12.54388 | -75.20552 | 26979 ft | 431 kts | 284° |
| 2026-04-27 12:08 | -12.53693 | -75.23514 | 26964 ft | 431 kts | 284° |
| 2026-04-27 12:08 | -12.52987 | -75.26515 | 26965 ft | 432 kts | 284° |
| 2026-04-27 12:08 | -12.52285 | -75.29499 | 26967 ft | 430 kts | 284° |
| 2026-04-27 12:09 | -12.51584 | -75.32480 | 26963 ft | 432 kts | 284° |
| 2026-04-27 12:09 | -12.50886 | -75.35445 | 26965 ft | 432 kts | 284° |
| 2026-04-27 12:09 | -12.50182 | -75.38430 | 26973 ft | 431 kts | 284° |
| 2026-04-27 12:09 | -12.49480 | -75.41410 | 26974 ft | 431 kts | 284° |
| 2026-04-27 12:10 | -12.48771 | -75.44420 | 26968 ft | 431 kts | 284° |
| 2026-04-27 12:10 | -12.48075 | -75.47369 | 26974 ft | 432 kts | 284° |
| 2026-04-27 12:10 | -12.47366 | -75.50374 | 26967 ft | 431 kts | 284° |
| 2026-04-27 12:10 | -12.46665 | -75.53339 | 26960 ft | 432 kts | 284° |
| 2026-04-27 12:11 | -12.45965 | -75.56304 | 26970 ft | 431 kts | 284° |
| 2026-04-27 12:11 | -12.45252 | -75.59320 | 26988 ft | 433 kts | 284° |
| 2026-04-27 12:11 | -12.44544 | -75.62315 | 26976 ft | 432 kts | 284° |
| 2026-04-27 12:11 | -12.43841 | -75.65280 | 26973 ft | 431 kts | 284° |
| 2026-04-27 12:12 | -12.43137 | -75.68255 | 26977 ft | 431 kts | 284° |
| 2026-04-27 12:12 | -12.42433 | -75.71226 | 26968 ft | 432 kts | 284° |
| 2026-04-27 12:12 | -12.41726 | -75.74212 | 26974 ft | 431 kts | 284° |
| 2026-04-27 12:12 | -12.41015 | -75.77206 | 26971 ft | 432 kts | 284° |
| 2026-04-27 12:13 | -12.40310 | -75.80180 | 26976 ft | 432 kts | 284° |
| 2026-04-27 12:13 | -12.39596 | -75.83189 | 26968 ft | 431 kts | 284° |
| 2026-04-27 12:13 | -12.38894 | -75.86144 | 26989 ft | 433 kts | 284° |
| 2026-04-27 12:13 | -12.38183 | -75.89135 | 26968 ft | 431 kts | 284° |
| 2026-04-27 12:14 | -12.37473 | -75.92122 | 26968 ft | 431 kts | 284° |
| 2026-04-27 12:14 | -12.36771 | -75.95072 | 26987 ft | 432 kts | 284° |
| 2026-04-27 12:14 | -12.36056 | -75.98079 | 27003 ft | 431 kts | 284° |
| 2026-04-27 12:14 | -12.35343 | -76.01073 | 26993 ft | 433 kts | 284° |
| 2026-04-27 12:15 | -12.34641 | -76.04041 | 27012 ft | 432 kts | 283° |
| 2026-04-27 12:15 | -12.33998 | -76.07040 | 26984 ft | 432 kts | 283° |
| 2026-04-27 12:15 | -12.33350 | -76.10023 | 26932 ft | 433 kts | 283° |
| 2026-04-27 12:15 | -12.32700 | -76.13037 | 26910 ft | 433 kts | 283° |
| 2026-04-27 12:16 | -12.32050 | -76.16041 | 26900 ft | 432 kts | 283° |
| 2026-04-27 12:16 | -12.31408 | -76.19012 | 26895 ft | 431 kts | 283° |
| 2026-04-27 12:16 | -12.30758 | -76.22015 | 26891 ft | 432 kts | 283° |
| 2026-04-27 12:16 | -12.30105 | -76.25040 | 26828 ft | 431 kts | 283° |
| 2026-04-27 12:17 | -12.29463 | -76.28031 | 26798 ft | 431 kts | 283° |
| 2026-04-27 12:17 | -12.28825 | -76.31001 | 26768 ft | 432 kts | 283° |
| 2026-04-27 12:17 | -12.28177 | -76.34017 | 26742 ft | 433 kts | 283° |
| 2026-04-27 12:17 | -12.27530 | -76.37022 | 26723 ft | 432 kts | 283° |
| 2026-04-27 12:18 | -12.26882 | -76.40031 | 26685 ft | 432 kts | 283° |
| 2026-04-27 12:18 | -12.26242 | -76.43008 | 26644 ft | 432 kts | 283° |
| 2026-04-27 12:18 | -12.25597 | -76.45995 | 26633 ft | 433 kts | 283° |
| 2026-04-27 12:18 | -12.24940 | -76.49033 | 26594 ft | 434 kts | 283° |
| 2026-04-27 12:19 | -12.24290 | -76.52035 | 26640 ft | 432 kts | 283° |
| 2026-04-27 12:19 | -12.23640 | -76.55039 | 26606 ft | 434 kts | 283° |
| 2026-04-27 12:19 | -12.22995 | -76.58018 | 26527 ft | 432 kts | 283° |
| 2026-04-27 12:19 | -12.22342 | -76.61028 | 26483 ft | 433 kts | 283° |
| 2026-04-27 12:20 | -12.21695 | -76.64009 | 26441 ft | 433 kts | 283° |
| 2026-04-27 12:20 | -12.21036 | -76.67026 | 26383 ft | 435 kts | 283° |
| 2026-04-27 12:20 | -12.20377 | -76.70035 | 26293 ft | 434 kts | 283° |
| 2026-04-27 12:20 | -12.19721 | -76.73032 | 26261 ft | 434 kts | 283° |
| 2026-04-27 12:21 | -12.19053 | -76.76078 | 26207 ft | 435 kts | 283° |
| 2026-04-27 12:21 | -12.18396 | -76.79076 | 26148 ft | 433 kts | 283° |
| 2026-04-27 12:21 | -12.17752 | -76.82002 | 26002 ft | 408 kts | 283° |
| 2026-04-27 12:21 | -12.17152 | -76.84712 | 25450 ft | 377 kts | 283° |
| 2026-04-27 12:22 | -12.16598 | -76.87226 | 24953 ft | 352 kts | 283° |
| 2026-04-27 12:22 | -12.16077 | -76.89593 | 24370 ft | 332 kts | 282° |
| 2026-04-27 12:22 | -12.15587 | -76.91818 | 23812 ft | 316 kts | 282° |
| 2026-04-27 12:22 | -12.15116 | -76.93967 | 23276 ft | 303 kts | 282° |
| 2026-04-27 12:23 | -12.14668 | -76.96014 | 22759 ft | 292 kts | 282° |
| 2026-04-27 12:23 | -12.14234 | -76.97994 | 22255 ft | 282 kts | 282° |
| 2026-04-27 12:23 | -12.13815 | -76.99912 | 21775 ft | 274 kts | 282° |
| 2026-04-27 12:23 | -12.13403 | -77.01795 | 21300 ft | 267 kts | 283° |
| 2026-04-27 12:24 | -12.13004 | -77.03616 | 20825 ft | 262 kts | 283° |
| 2026-04-27 12:24 | -12.12612 | -77.05405 | 20349 ft | 258 kts | 284° |
| 2026-04-27 12:24 | -12.12222 | -77.07187 | 19910 ft | 255 kts | 284° |
| 2026-04-27 12:24 | -12.11833 | -77.08958 | 19490 ft | 257 kts | 284° |
| 2026-04-27 12:25 | -12.11442 | -77.10741 | 19040 ft | 261 kts | 285° |
| 2026-04-27 12:25 | -12.11046 | -77.12544 | 18587 ft | 264 kts | 285° |
| 2026-04-27 12:25 | -12.10644 | -77.14376 | 18129 ft | 267 kts | 286° |
| 2026-04-27 12:25 | -12.10233 | -77.16251 | 17662 ft | 270 kts | 286° |
| 2026-04-27 12:26 | -12.09757 | -77.18083 | 17201 ft | 269 kts | 301° |
| 2026-04-27 12:26 | -12.08539 | -77.19447 | 16813 ft | 258 kts | 333° |
| 2026-04-27 12:26 | -12.06970 | -77.20307 | 16393 ft | 258 kts | 335° |
| 2026-04-27 12:26 | -12.05344 | -77.21146 | 15919 ft | 260 kts | 335° |
| 2026-04-27 12:27 | -12.03727 | -77.21964 | 15442 ft | 263 kts | 336° |
| 2026-04-27 12:27 | -12.02088 | -77.22784 | 14980 ft | 264 kts | 336° |
| 2026-04-27 12:27 | -12.00430 | -77.23641 | 14500 ft | 267 kts | 335° |
| 2026-04-27 12:27 | -11.98767 | -77.24509 | 14025 ft | 268 kts | 334° |
| 2026-04-27 12:28 | -11.97096 | -77.25382 | 13549 ft | 270 kts | 335° |
| 2026-04-27 12:28 | -11.95439 | -77.26246 | 13077 ft | 271 kts | 334° |
| 2026-04-27 12:28 | -11.93755 | -77.27124 | 12595 ft | 273 kts | 335° |
| 2026-04-27 12:28 | -11.92060 | -77.27994 | 12119 ft | 274 kts | 336° |
| 2026-04-27 12:29 | -11.90333 | -77.28845 | 11602 ft | 275 kts | 335° |
| 2026-04-27 12:29 | -11.88628 | -77.29684 | 11130 ft | 275 kts | 335° |
| 2026-04-27 12:29 | -11.86896 | -77.30519 | 10626 ft | 276 kts | 341° |
| 2026-04-27 12:29 | -11.85037 | -77.30673 | 10167 ft | 271 kts | 16° |
| 2026-04-27 12:30 | -11.83473 | -77.29750 | 9766 ft | 264 kts | 52° |
| 2026-04-27 12:30 | -11.82512 | -77.28172 | 9342 ft | 261 kts | 64° |
| 2026-04-27 12:30 | -11.81678 | -77.26533 | 8849 ft | 262 kts | 64° |
| 2026-04-27 12:30 | -11.81037 | -77.24839 | 8386 ft | 261 kts | 86° |
| 2026-04-27 12:31 | -11.81375 | -77.23116 | 7949 ft | 255 kts | 122° |
| 2026-04-27 12:31 | -11.82620 | -77.21847 | 7550 ft | 252 kts | 144° |
| 2026-04-27 12:31 | -11.84039 | -77.20801 | 7079 ft | 253 kts | 145° |
| 2026-04-27 12:31 | -11.85482 | -77.19765 | 6587 ft | 255 kts | 148° |
| 2026-04-27 12:32 | -11.87063 | -77.18920 | 6146 ft | 253 kts | 154° |
| 2026-04-27 12:32 | -11.88594 | -77.18160 | 6055 ft | 236 kts | 154° |
| 2026-04-27 12:32 | -11.90013 | -77.17456 | 6027 ft | 219 kts | 155° |
| 2026-04-27 12:32 | -11.91365 | -77.16788 | 5744 ft | 216 kts | 154° |
| 2026-04-27 12:33 | -11.92710 | -77.16122 | 5439 ft | 214 kts | 154° |
| 2026-04-27 12:33 | -11.94059 | -77.15472 | 5130 ft | 213 kts | 162° |
| 2026-04-27 12:33 | -11.95475 | -77.15509 | 4873 ft | 207 kts | 208° |
| 2026-04-27 12:33 | -11.96522 | -77.16479 | 4653 ft | 202 kts | 234° |
| 2026-04-27 12:34 | -11.97298 | -77.17647 | 4442 ft | 196 kts | 234° |
| 2026-04-27 12:34 | -11.98085 | -77.18760 | 4195 ft | 190 kts | 234° |
| 2026-04-27 12:34 | -11.98858 | -77.19843 | 3891 ft | 189 kts | 234° |
| 2026-04-27 12:34 | -11.99632 | -77.20927 | 3583 ft | 188 kts | 234° |
| 2026-04-27 12:35 | -12.00378 | -77.22034 | 3272 ft | 187 kts | 248° |
| 2026-04-27 12:35 | -12.00503 | -77.23315 | 2997 ft | 183 kts | 275° |
| 2026-04-27 12:35 | -12.00112 | -77.24528 | 2703 ft | 181 kts | 307° |
| 2026-04-27 12:35 | -11.99234 | -77.25444 | 2419 ft | 179 kts | 320° |
| 2026-04-27 12:36 | -11.98272 | -77.26270 | 2124 ft | 179 kts | 320° |
| 2026-04-27 12:36 | -11.97303 | -77.27093 | 1822 ft | 180 kts | 320° |
| 2026-04-27 12:36 | -11.96330 | -77.27914 | 1512 ft | 180 kts | 320° |
| 2026-04-27 12:36 | -11.95370 | -77.28718 | 1356 ft | 171 kts | 320° |
| 2026-04-27 12:37 | -11.94437 | -77.29401 | 1315 ft | 158 kts | 329° |
| 2026-04-27 12:37 | -11.93505 | -77.29944 | 1356 ft | 152 kts | 331° |
| 2026-04-27 12:37 | -11.92491 | -77.30308 | 1420 ft | 155 kts | 344° |
| 2026-04-27 12:37 | -11.91444 | -77.30622 | 1358 ft | 155 kts | 344° |
| 2026-04-27 12:38 | -11.90415 | -77.30930 | 1357 ft | 155 kts | 344° |
| 2026-04-27 12:38 | -11.89367 | -77.31242 | 1353 ft | 156 kts | 344° |
| 2026-04-27 12:38 | -11.88308 | -77.31559 | 1351 ft | 157 kts | 344° |
| 2026-04-27 12:38 | -11.87261 | -77.31872 | 1351 ft | 157 kts | 344° |
| 2026-04-27 12:39 | -11.86196 | -77.31943 | 1345 ft | 155 kts | 21° |
| 2026-04-27 12:39 | -11.85401 | -77.31295 | 1372 ft | 151 kts | 64° |
| 2026-04-27 12:39 | -11.84971 | -77.30315 | 1375 ft | 150 kts | 71° |
| 2026-04-27 12:39 | -11.84569 | -77.29337 | 1354 ft | 150 kts | 71° |
| 2026-04-27 12:40 | -11.84166 | -77.28351 | 1360 ft | 149 kts | 71° |
| 2026-04-27 12:40 | -11.83763 | -77.27367 | 1350 ft | 149 kts | 71° |
| 2026-04-27 12:40 | -11.83368 | -77.26393 | 1357 ft | 149 kts | 71° |
| 2026-04-27 12:40 | -11.82965 | -77.25400 | 1352 ft | 150 kts | 71° |
| 2026-04-27 12:41 | -11.82652 | -77.24405 | 1356 ft | 148 kts | 78° |
| 2026-04-27 12:41 | -11.82375 | -77.23378 | 1353 ft | 149 kts | 78° |
| 2026-04-27 12:41 | -11.82105 | -77.22356 | 1357 ft | 149 kts | 78° |
| 2026-04-27 12:41 | -11.82063 | -77.21328 | 1350 ft | 146 kts | 114° |
| 2026-04-27 12:42 | -11.82719 | -77.20579 | 1392 ft | 143 kts | 150° |
| 2026-04-27 12:42 | -11.83599 | -77.20086 | 1367 ft | 145 kts | 153° |
| 2026-04-27 12:42 | -11.84492 | -77.19605 | 1174 ft | 143 kts | 154° |
| 2026-04-27 12:42 | -11.85363 | -77.19129 | 994 ft | 140 kts | 153° |
| 2026-04-27 12:43 | -11.86228 | -77.18672 | 961 ft | 139 kts | 154° |
| 2026-04-27 12:43 | -11.87111 | -77.18240 | 956 ft | 140 kts | 157° |
| 2026-04-27 12:43 | -11.88015 | -77.17817 | 937 ft | 143 kts | 156° |
| 2026-04-27 12:43 | -11.88920 | -77.17405 | 847 ft | 140 kts | 160° |
| 2026-04-27 12:44 | -11.89831 | -77.17075 | 862 ft | 138 kts | 164° |
| 2026-04-27 12:44 | -11.90754 | -77.16785 | 917 ft | 139 kts | 165° |
| 2026-04-27 12:44 | -11.91704 | -77.16534 | 952 ft | 139 kts | 166° |
| 2026-04-27 12:44 | -11.92630 | -77.16191 | 1173 ft | 142 kts | 158° |
| 2026-04-27 12:45 | -11.93527 | -77.15744 | 1118 ft | 144 kts | 152° |
| 2026-04-27 12:45 | -11.94416 | -77.15279 | 948 ft | 143 kts | 156° |
| 2026-04-27 12:45 | -11.95307 | -77.14838 | 762 ft | 140 kts | 153° |
| 2026-04-27 12:45 | -11.96164 | -77.14397 | 604 ft | 138 kts | 156° |
| 2026-04-27 12:46 | -11.97030 | -77.13966 | 492 ft | 136 kts | 158° |
| 2026-04-27 12:46 | -11.97888 | -77.13562 | 448 ft | 137 kts | 153° |
| 2026-04-27 12:46 | -11.98754 | -77.13128 | 364 ft | 138 kts | 156° |
| 2026-04-27 12:46 | -11.99621 | -77.12698 | 236 ft | 138 kts | 156° |
| 2026-04-27 12:47 | -12.00465 | -77.12284 | 150 ft | 136 kts | 156° |
| 2026-04-27 12:47 | -12.01279 | -77.11890 | 118 ft | 122 kts | 155° |
| 2026-04-27 12:47 | -12.01740 | -77.11663 | 117 ft | 11 kts | 169° |
| 2026-04-27 12:47 | -12.01744 | -77.11661 | 117 ft | 0 kts | 171° |